Time;durP1;ratioP1;P1;durP2;ratioP2;P2;SDS_P1;SDS_P2;PMS_P1;PMS_P2;Temp;Humidity;BMP_temperature;BMP_pressure;BME280_temperature;BME280_humidity;BME280_pressure;Samples;Min_cycle;Max_cycle;Signal;HPM_P1;HPM_P2
2022/05/31 00:02:18;;;;;;;9.53;5.90;;;;;;;8.16;100.00;99856.38;4232928;28;20365;-69
2022/05/31 00:04:46;;;;;;;13.43;6.83;;;;;;;8.18;100.00;99854.41;4229923;28;20256;-70
2022/05/31 00:07:12;;;;;;;10.47;6.17;;;;;;;8.15;100.00;99852.06;4243323;28;21292;-70
2022/05/31 00:09:39;;;;;;;10.10;6.43;;;;;;;8.02;100.00;99855.84;4220150;28;25688;-66
2022/05/31 00:12:06;;;;;;;13.03;6.60;;;;;;;7.82;100.00;99844.44;4260281;28;20235;-68
2022/05/31 00:14:33;;;;;;;10.00;6.70;;;;;;;7.91;100.00;99849.84;4241548;28;21812;-68
2022/05/31 00:17:02;;;;;;;13.87;7.17;;;;;;;7.81;100.00;99849.88;4236138;28;20532;-71
2022/05/31 00:19:29;;;;;;;11.50;7.37;;;;;;;7.73;100.00;99847.94;4230657;28;21826;-69
2022/05/31 00:22:03;;;;;;;10.33;6.30;;;;;;;7.72;100.00;99846.25;4248402;28;20796;-69
2022/05/31 00:24:30;;;;;;;8.33;6.27;;;;;;;7.78;100.00;99853.66;4224656;28;20339;-69
2022/05/31 00:26:56;;;;;;;9.13;6.80;;;;;;;7.84;100.00;99846.94;4226085;28;20231;-68
2022/05/31 00:29:23;;;;;;;13.87;7.00;;;;;;;7.94;100.00;99850.44;4231069;28;20485;-70
2022/05/31 00:31:51;;;;;;;12.10;6.60;;;;;;;7.82;100.00;99852.41;4236996;28;20239;-69
2022/05/31 00:34:18;;;;;;;12.70;6.80;;;;;;;7.87;100.00;99859.91;4213897;28;20429;-71
2022/05/31 00:36:46;;;;;;;10.40;6.73;;;;;;;7.88;100.00;99866.03;4229731;28;20239;-69
2022/05/31 00:39:13;;;;;;;14.43;7.30;;;;;;;7.86;100.00;99866.19;4220864;28;20303;-68
2022/05/31 00:41:40;;;;;;;9.50;6.57;;;;;;;7.85;100.00;99861.03;4241120;28;20242;-67
2022/05/31 00:44:16;;;;;;;14.03;7.57;;;;;;;7.88;100.00;99863.41;4235473;28;21107;-68
2022/05/31 00:46:51;;;;;;;10.83;7.23;;;;;;;7.89;100.00;99868.56;4235103;28;21440;-70
2022/05/31 00:49:50;;;;;;;13.90;7.13;;;;;;;7.87;100.00;99864.38;4219934;28;20239;-68
2022/05/31 00:52:25;;;;;;;12.37;7.03;;;;;;;7.85;100.00;99856.56;4230160;28;20376;-69
2022/05/31 00:54:57;;;;;;;13.10;7.13;;;;;;;7.87;100.00;99867.88;4222214;28;20234;-69
2022/05/31 00:57:23;;;;;;;11.60;7.20;;;;;;;7.86;100.00;99866.19;4228477;28;20246;-68
2022/05/31 00:59:54;;;;;;;9.97;6.40;;;;;;;7.88;100.00;99866.03;4230105;28;20414;-70
2022/05/31 01:02:21;;;;;;;9.73;6.90;;;;;;;7.85;100.00;99871.63;4219935;28;20311;-69
2022/05/31 01:04:56;;;;;;;14.90;6.97;;;;;;;8.03;100.00;99873.41;4249054;28;20331;-68
2022/05/31 01:07:22;;;;;;;10.47;7.10;;;;;;;7.88;100.00;99877.47;4230150;28;20473;-69
2022/05/31 01:09:49;;;;;;;15.13;7.77;;;;;;;7.73;100.00;99874.44;4244280;28;22205;-71
2022/05/31 01:12:16;;;;;;;12.23;7.63;;;;;;;7.78;100.00;99884.59;4255072;28;20259;-70
2022/05/31 01:14:42;;;;;;;14.53;7.40;;;;;;;7.87;100.00;99881.13;4238568;28;21679;-70
2022/05/31 01:17:14;;;;;;;10.93;7.50;;;;;;;7.79;100.00;99880.97;4255408;28;21596;-69
2022/05/31 01:19:56;;;;;;;11.83;7.40;;;;;;;7.88;100.00;99887.25;4237209;28;20461;-69
2022/05/31 01:22:40;;;;;;;9.03;7.00;;;;;;;7.68;100.00;99881.09;4227891;28;22316;-71
2022/05/31 01:25:39;;;;;;;12.83;7.73;;;;;;;7.49;100.00;99882.81;4240001;28;20242;-69
2022/05/31 01:28:11;;;;;;;14.03;7.57;;;;;;;7.45;100.00;99880.56;4227982;28;20421;-69
2022/05/31 01:30:42;;;;;;;15.63;8.23;;;;;;;7.53;100.00;99884.19;4240061;28;20231;-69
2022/05/31 01:33:14;;;;;;;12.23;7.57;;;;;;;7.51;100.00;99895.88;4224900;28;20248;-70
2022/05/31 01:35:42;;;;;;;10.83;7.80;;;;;;;7.50;100.00;99889.75;4236222;28;22135;-69
2022/05/31 01:38:24;;;;;;;13.07;7.90;;;;;;;7.66;100.00;99904.28;4231491;28;20270;-70
2022/05/31 01:41:06;;;;;;;13.97;8.03;;;;;;;7.57;100.00;99898.81;4250052;28;20439;-70
2022/05/31 01:43:33;;;;;;;10.03;7.10;;;;;;;7.65;100.00;99906.06;4243097;28;20235;-68
2022/05/31 01:46:07;;;;;;;13.50;8.00;;;;;;;7.61;100.00;99897.56;4233544;28;20234;-70
2022/05/31 01:48:34;;;;;;;12.43;8.50;;;;;;;7.63;100.00;99904.53;4234515;28;20231;-69
2022/05/31 01:51:01;;;;;;;11.63;8.37;;;;;;;7.54;100.00;99901.75;4248559;28;20234;-69
2022/05/31 01:53:28;;;;;;;12.90;8.33;;;;;;;7.51;100.00;99907.31;4255458;28;20250;-69
2022/05/31 01:55:55;;;;;;;14.50;8.47;;;;;;;7.61;100.00;99902.88;4231367;28;20246;-70
2022/05/31 01:58:28;;;;;;;13.00;8.77;;;;;;;7.63;100.00;99910.66;4251117;28;20227;-69
2022/05/31 02:00:55;;;;;;;12.83;8.43;;;;;;;7.60;100.00;99910.94;4255367;28;20230;-69
2022/05/31 02:03:22;;;;;;;14.37;8.40;;;;;;;7.56;100.00;99910.41;4236685;28;20268;-69
2022/05/31 02:05:51;;;;;;;14.43;8.80;;;;;;;7.65;100.00;99914.00;4241966;28;20228;-70
2022/05/31 02:08:19;;;;;;;9.77;8.00;;;;;;;7.67;100.00;99916.53;4212783;28;20234;-70
2022/05/31 02:10:47;;;;;;;11.40;8.63;;;;;;;7.69;100.00;99919.88;4249314;28;20234;-69
2022/05/31 02:13:15;;;;;;;15.00;8.73;;;;;;;7.78;100.00;99922.50;4231931;28;20230;-69
2022/05/31 02:15:42;;;;;;;13.43;8.67;;;;;;;7.75;100.00;99921.94;4247675;28;20228;-70
2022/05/31 02:18:10;;;;;;;17.13;8.50;;;;;;;7.76;100.00;99926.28;4238037;28;20684;-70
2022/05/31 02:20:37;;;;;;;16.00;8.63;;;;;;;7.72;100.00;99924.88;4241097;28;20245;-70
2022/05/31 02:23:04;;;;;;;12.90;9.00;;;;;;;7.72;100.00;99922.22;4241314;28;20251;-71
2022/05/31 02:25:31;;;;;;;14.40;8.90;;;;;;;7.76;100.00;99921.81;4246728;28;20949;-69
2022/05/31 02:28:00;;;;;;;17.07;8.50;;;;;;;7.74;100.00;99922.94;4246684;28;20242;-70
2022/05/31 02:30:27;;;;;;;11.83;8.57;;;;;;;7.73;100.00;99924.75;4264236;28;21835;-70
2022/05/31 02:32:54;;;;;;;18.93;8.40;;;;;;;7.82;100.00;99923.09;4272460;28;20295;-69
2022/05/31 02:35:20;;;;;;;13.70;8.33;;;;;;;7.77;100.00;99923.50;4236281;28;20227;-70
2022/05/31 02:37:47;;;;;;;13.87;8.03;;;;;;;7.78;100.00;99926.97;4283120;28;20231;-71
2022/05/31 02:40:14;;;;;;;15.13;9.00;;;;;;;7.86;100.00;99927.09;4286364;28;20232;-71
2022/05/31 02:42:42;;;;;;;12.17;8.23;;;;;;;7.86;100.00;99919.16;4264247;28;20250;-70
2022/05/31 02:45:10;;;;;;;14.87;8.50;;;;;;;7.84;100.00;99923.75;4270856;28;20237;-70
2022/05/31 02:47:39;;;;;;;14.50;8.40;;;;;;;7.78;100.00;99926.97;4285578;28;22983;-70
2022/05/31 02:50:07;;;;;;;13.40;8.40;;;;;;;7.84;100.00;99926.41;4275788;28;20662;-69
2022/05/31 02:52:34;;;;;;;13.23;8.07;;;;;;;7.92;100.00;99931.84;4272290;28;20234;-69
2022/05/31 02:55:01;;;;;;;11.70;8.50;;;;;;;7.80;100.00;99927.69;4257414;28;20341;-69
2022/05/31 02:57:28;;;;;;;13.63;8.70;;;;;;;7.89;100.00;99932.16;4270975;28;22028;-68
2022/05/31 02:59:55;;;;;;;13.07;8.77;;;;;;;7.77;100.00;99928.81;4260302;28;21171;-70
2022/05/31 03:02:22;;;;;;;11.23;7.97;;;;;;;7.78;100.00;99934.94;4256557;28;25786;-68
2022/05/31 03:04:49;;;;;;;13.87;8.63;;;;;;;7.75;100.00;99933.41;4252875;28;21277;-69
2022/05/31 03:07:15;;;;;;;11.67;8.17;;;;;;;7.80;100.00;99932.97;4255020;28;20524;-69
2022/05/31 03:09:42;;;;;;;11.13;8.33;;;;;;;7.83;100.00;99938.81;4254977;28;26755;-70
2022/05/31 03:12:12;;;;;;;15.97;7.73;;;;;;;7.98;100.00;99941.91;4263043;28;20231;-68
2022/05/31 03:15:00;;;;;;;10.20;7.90;;;;;;;8.02;100.00;99937.97;4263952;28;20248;-69
2022/05/31 03:17:33;;;;;;;13.13;7.90;;;;;;;8.20;99.72;99947.88;4262478;28;20229;-69
2022/05/31 03:20:12;;;;;;;14.53;7.27;;;;;;;8.19;99.60;99954.13;4241947;28;20225;-69
2022/05/31 03:22:46;;;;;;;11.73;7.40;;;;;;;8.29;98.98;99949.66;4276174;28;20287;-69
2022/05/31 03:25:18;;;;;;;14.80;7.23;;;;;;;8.30;98.42;99951.34;4231567;28;20250;-70
2022/05/31 03:27:46;;;;;;;11.83;7.30;;;;;;;8.27;98.34;99956.94;4255451;28;20235;-70
2022/05/31 03:30:14;;;;;;;14.60;7.70;;;;;;;8.31;98.77;99954.81;4233918;28;20233;-69
2022/05/31 03:32:41;;;;;;;12.47;7.13;;;;;;;8.47;97.31;99957.75;4240889;28;21263;-69
2022/05/31 03:35:08;;;;;;;9.63;6.80;;;;;;;8.41;96.82;99953.03;4238143;28;20242;-69
2022/05/31 03:37:34;;;;;;;11.83;7.47;;;;;;;8.52;96.69;99957.31;4250985;28;20226;-69
2022/05/31 03:40:01;;;;;;;11.47;7.20;;;;;;;8.57;96.31;99952.41;4239834;28;20238;-70
2022/05/31 03:42:28;;;;;;;11.57;7.10;;;;;;;8.61;95.84;99959.94;4244190;28;20553;-70
2022/05/31 03:44:55;;;;;;;11.83;7.40;;;;;;;8.72;94.82;99964.25;4243863;28;20958;-70
2022/05/31 03:47:21;;;;;;;10.60;7.20;;;;;;;8.78;94.87;99963.69;4256905;28;22287;-69
2022/05/31 03:49:48;;;;;;;11.30;6.77;;;;;;;8.83;93.46;99964.06;4255192;28;21745;-70
2022/05/31 03:52:14;;;;;;;14.23;6.80;;;;;;;8.73;93.95;99971.22;4246228;28;20236;-70
2022/05/31 03:54:41;;;;;;;11.10;6.47;;;;;;;8.84;93.53;99963.06;4242433;28;20284;-70
2022/05/31 03:57:17;;;;;;;9.13;6.20;;;;;;;8.97;92.71;99969.88;4247706;28;20556;-68
2022/05/31 03:59:43;;;;;;;8.47;6.10;;;;;;;8.91;92.19;99975.78;4242724;28;21364;-71
2022/05/31 04:02:10;;;;;;;12.93;6.50;;;;;;;9.00;91.91;99980.19;4234882;28;20305;-70
2022/05/31 04:04:36;;;;;;;11.40;5.93;;;;;;;9.03;91.64;99986.03;4255114;28;20436;-69
2022/05/31 04:07:03;;;;;;;15.10;6.43;;;;;;;9.15;91.52;99989.34;4238313;28;20314;-69
2022/05/31 04:09:30;;;;;;;11.83;6.67;;;;;;;9.17;91.38;99986.56;4235999;28;20236;-70
2022/05/31 04:11:59;;;;;;;12.63;6.60;;;;;;;9.24;90.66;99999.09;4224294;28;20276;-71
2022/05/31 04:14:25;;;;;;;15.17;6.33;;;;;;;9.29;91.01;99996.84;4238196;28;20243;-69
2022/05/31 04:16:52;;;;;;;14.70;6.63;;;;;;;9.34;90.90;99999.06;4228501;28;20242;-70
2022/05/31 04:19:18;;;;;;;12.33;6.60;;;;;;;9.39;90.42;100003.91;4223117;28;20242;-70
2022/05/31 04:21:45;;;;;;;11.83;6.57;;;;;;;9.54;89.82;100006.91;4230125;28;20282;-69
2022/05/31 04:24:12;;;;;;;8.53;5.97;;;;;;;9.69;88.80;100010.72;4227566;28;23027;-71
2022/05/31 04:26:44;;;;;;;15.83;6.53;;;;;;;9.62;88.87;100004.31;4244018;28;21122;-71
2022/05/31 04:29:10;;;;;;;11.77;5.73;;;;;;;9.72;88.95;100010.44;4239528;28;21395;-71
2022/05/31 04:31:37;;;;;;;13.03;6.33;;;;;;;9.81;88.60;100014.00;4239662;28;22342;-71
2022/05/31 04:34:04;;;;;;;10.27;5.87;;;;;;;9.88;88.40;100017.72;4226082;28;20257;-70
2022/05/31 04:36:32;;;;;;;12.40;6.63;;;;;;;9.96;88.61;100017.81;4234482;28;22293;-69
2022/05/31 04:39:00;;;;;;;10.07;5.47;;;;;;;9.98;87.46;100023.81;4226127;28;20230;-71
2022/05/31 04:41:28;;;;;;;10.67;6.00;;;;;;;10.02;87.52;100027.84;4249105;28;20225;-71
2022/05/31 04:43:56;;;;;;;11.40;6.00;;;;;;;10.17;87.19;100027.31;4238312;28;20234;-70
2022/05/31 04:46:25;;;;;;;9.77;5.90;;;;;;;10.35;86.24;100020.19;4236773;28;20232;-71
2022/05/31 04:48:54;;;;;;;13.70;6.33;;;;;;;10.42;85.75;100031.03;4223945;28;20716;-72
2022/05/31 04:51:20;;;;;;;9.37;6.07;;;;;;;10.32;85.25;100017.81;4229064;28;20244;-71
2022/05/31 04:53:47;;;;;;;15.30;5.67;;;;;;;10.30;85.84;100019.78;4238054;28;20225;-71
2022/05/31 04:56:19;;;;;;;9.40;6.23;;;;;;;10.25;86.50;100014.06;4234523;28;25782;-71
2022/05/31 04:58:48;;;;;;;10.83;6.77;;;;;;;10.35;86.86;100021.03;4223824;28;21758;-71
2022/05/31 05:01:15;;;;;;;9.70;6.03;;;;;;;10.61;85.37;100024.72;4241386;28;22668;-70
2022/05/31 05:03:43;;;;;;;9.87;6.10;;;;;;;10.78;84.73;100029.16;4242217;28;20242;-70
2022/05/31 05:06:12;;;;;;;10.20;6.00;;;;;;;10.88;84.27;100032.53;4229917;28;20235;-70
2022/05/31 05:08:38;;;;;;;8.67;5.90;;;;;;;10.97;84.58;100030.75;4229099;28;22232;-70
2022/05/31 05:11:08;;;;;;;13.27;6.40;;;;;;;10.93;84.14;100030.25;4230724;28;21553;-70
2022/05/31 05:13:36;;;;;;;11.63;6.37;;;;;;;10.96;84.87;100029.09;4231756;28;20224;-70
2022/05/31 05:16:02;;;;;;;10.40;6.37;;;;;;;11.07;86.09;100031.47;4250262;28;20234;-70
2022/05/31 05:18:30;;;;;;;8.70;6.20;;;;;;;11.43;84.00;100035.84;4227229;28;20233;-71
2022/05/31 05:21:03;;;;;;;14.77;6.80;;;;;;;11.54;81.58;100033.72;4227562;28;20242;-69
2022/05/31 05:23:29;;;;;;;9.73;6.03;;;;;;;11.83;80.53;100032.47;4233242;28;21648;-70
2022/05/31 05:25:59;;;;;;;10.70;5.63;;;;;;;12.17;79.11;100035.03;4250495;28;20255;-70
2022/05/31 05:31:24;;;;;;;9.67;5.73;;;;;;;13.19;74.83;100042.63;4258625;28;25371;-71
2022/05/31 05:33:51;;;;;;;8.30;5.13;;;;;;;13.84;70.63;100054.94;4270230;28;20628;-70
2022/05/31 05:36:18;;;;;;;12.37;5.57;;;;;;;14.20;67.87;100054.34;4260194;28;20262;-72
2022/05/31 05:38:45;;;;;;;8.80;4.73;;;;;;;14.43;67.29;100063.22;4244745;28;20228;-71
2022/05/31 05:41:12;;;;;;;10.40;5.37;;;;;;;14.97;64.67;100070.31;4230218;28;22348;-69
2022/05/31 05:43:40;;;;;;;8.10;4.77;;;;;;;15.03;64.11;100060.69;4249989;28;20230;-71
2022/05/31 05:46:32;;;;;;;9.97;4.83;;;;;;;15.52;63.86;100076.25;4247122;28;21310;-74
2022/05/31 05:48:59;;;;;;;11.23;4.97;;;;;;;16.35;59.87;100076.84;4270530;28;20867;-68
2022/05/31 05:51:29;;;;;;;10.37;4.40;;;;;;;16.81;58.81;100085.34;4249591;28;20234;-71
2022/05/31 05:53:56;;;;;;;9.57;4.70;;;;;;;17.23;56.02;100088.13;4259605;28;20231;-67
2022/05/31 05:56:24;;;;;;;11.27;4.87;;;;;;;18.66;51.82;100096.31;4252984;28;20233;-68
2022/05/31 05:58:51;;;;;;;8.73;4.83;;;;;;;19.09;50.38;100091.38;4252021;28;21553;-66
2022/05/31 06:01:17;;;;;;;6.77;4.40;;;;;;;19.50;48.21;100100.22;4248001;28;20255;-66
2022/05/31 06:04:07;;;;;;;8.73;4.53;;;;;;;19.62;48.13;100101.25;4249868;28;20236;-66
2022/05/31 06:06:34;;;;;;;5.60;4.10;;;;;;;19.19;47.37;100090.94;4239544;28;20223;-65
2022/05/31 06:09:08;;;;;;;6.30;3.90;;;;;;;19.13;47.83;100089.94;4234033;28;20282;-67
2022/05/31 06:11:41;;;;;;;10.17;4.53;;;;;;;18.76;48.14;100096.75;4243788;28;20230;-71
2022/05/31 06:14:11;;;;;;;7.27;4.37;;;;;;;19.04;48.33;100096.59;4253858;28;21059;-66
2022/05/31 06:16:44;;;;;;;7.13;4.40;;;;;;;19.04;49.41;100106.53;4249853;28;20226;-70
2022/05/31 06:19:16;;;;;;;13.93;5.00;;;;;;;19.81;46.68;100100.38;4260654;28;22410;-67
2022/05/31 06:21:43;;;;;;;7.83;4.80;;;;;;;19.92;46.24;100108.84;4242590;28;20405;-69
2022/05/31 06:24:10;;;;;;;6.87;4.23;;;;;;;20.79;43.82;100104.63;4233780;28;20246;-66
2022/05/31 06:26:37;;;;;;;7.97;4.23;;;;;;;21.68;41.67;100107.94;4312520;28;20291;-70
2022/05/31 06:29:04;;;;;;;10.03;4.17;;;;;;;22.03;40.84;100111.88;4284829;28;20231;-65
2022/05/31 06:31:34;;;;;;;11.37;4.20;;;;;;;21.75;40.75;100105.16;4234515;28;21245;-63
2022/05/31 06:34:00;;;;;;;5.97;3.70;;;;;;;22.75;39.24;100114.63;4276342;28;20493;-67
2022/05/31 06:36:27;;;;;;;13.23;4.00;;;;;;;22.17;39.68;100113.34;4255485;28;20232;-67
2022/05/31 06:38:54;;;;;;;6.37;3.47;;;;;;;22.69;37.39;100121.00;4243919;28;20799;-68
2022/05/31 06:41:20;;;;;;;7.00;4.37;;;;;;;22.53;38.53;100115.19;4232969;28;20239;-66
2022/05/31 06:43:47;;;;;;;8.37;3.90;;;;;;;22.37;38.66;100112.31;4259171;28;20719;-69
2022/05/31 06:46:14;;;;;;;6.77;3.93;;;;;;;22.88;37.63;100125.28;4229689;28;20420;-67
2022/05/31 06:48:41;;;;;;;6.20;3.93;;;;;;;22.51;38.35;100113.75;4228990;28;20235;-66
2022/05/31 06:51:12;;;;;;;7.37;3.77;;;;;;;23.37;36.60;100127.81;4251265;28;20231;-68
2022/05/31 06:58:53;;;;;;;7.20;3.77;;;;;;;24.43;33.55;100131.09;4246722;28;21212;-67
2022/05/31 07:01:22;;;;;;;6.90;3.73;;;;;;;24.56;32.57;100124.59;4249215;28;22289;-67
2022/05/31 07:03:49;;;;;;;8.13;3.20;;;;;;;24.10;33.93;100120.97;4261996;28;21257;-69
2022/05/31 07:06:16;;;;;;;5.17;3.00;;;;;;;25.17;31.46;100132.09;4228851;28;20224;-68
2022/05/31 07:08:43;;;;;;;10.77;3.33;;;;;;;25.31;32.46;100130.72;4290739;28;21858;-70
2022/05/31 07:11:09;;;;;;;4.70;2.93;;;;;;;25.37;32.01;100131.59;4265290;28;20225;-69
2022/05/31 07:13:36;;;;;;;7.10;3.13;;;;;;;25.24;31.82;100136.34;4255055;28;21716;-68
2022/05/31 07:16:03;;;;;;;5.20;2.90;;;;;;;24.92;31.38;100137.97;4257516;28;23133;-69
2022/05/31 07:18:39;;;;;;;4.50;3.00;;;;;;;23.84;32.29;100133.22;4262088;28;21028;-68
2022/05/31 07:21:06;;;;;;;5.67;2.83;;;;;;;21.82;36.13;100116.75;4253504;28;20243;-68
2022/05/31 07:23:32;;;;;;;5.83;2.67;;;;;;;21.98;36.28;100120.69;4248987;28;20239;-64
2022/05/31 07:25:59;;;;;;;4.67;2.77;;;;;;;20.69;38.64;100115.06;4254064;28;20239;-64
2022/05/31 07:28:46;;;;;;;6.73;2.90;;;;;;;20.66;40.91;100108.22;4245928;28;20444;-47
2022/05/31 07:31:12;;;;;;;3.93;2.30;;;;;;;20.78;40.80;100104.81;4259408;28;20684;-51
2022/05/31 07:33:39;;;;;;;7.30;3.40;;;;;;;20.26;41.45;100104.13;4259179;28;21423;-70
2022/05/31 07:36:07;;;;;;;7.83;3.50;;;;;;;20.33;41.89;100102.19;4259245;28;20235;-70
2022/05/31 07:38:35;;;;;;;5.13;3.30;;;;;;;20.54;40.79;100101.84;4249866;28;21852;-49
2022/05/31 07:41:02;;;;;;;3.43;2.50;;;;;;;20.47;39.39;100109.19;4240837;28;20238;-73
2022/05/31 07:43:29;;;;;;;6.27;2.70;;;;;;;19.88;41.14;100099.50;4232339;28;20251;-69
2022/05/31 07:46:10;;;;;;;5.67;2.73;;;;;;;19.73;42.29;100103.28;4256310;28;20294;-69
2022/05/31 07:48:38;;;;;;;5.70;3.07;;;;;;;18.88;43.58;100100.53;4255394;28;20297;-68
2022/05/31 07:51:05;;;;;;;5.17;2.70;;;;;;;19.17;43.95;100090.31;4242511;28;21826;-71
2022/05/31 07:53:36;;;;;;;7.47;3.17;;;;;;;19.56;44.13;100102.91;4226786;28;20292;-69
2022/05/31 07:56:07;;;;;;;8.33;2.57;;;;;;;19.28;43.15;100089.69;4264460;28;21649;-72
2022/05/31 07:58:38;;;;;;;6.07;2.40;;;;;;;19.53;42.24;100097.94;4240879;28;20235;-69
2022/05/31 08:01:13;;;;;;;4.93;2.70;;;;;;;19.20;43.73;100092.63;4251653;28;20231;-70
2022/05/31 08:03:40;;;;;;;5.30;2.70;;;;;;;19.15;43.19;100097.78;4266467;28;20256;-71
2022/05/31 08:06:12;;;;;;;6.27;2.33;;;;;;;18.89;43.77;100096.78;4249439;28;20261;-68
2022/05/31 08:08:40;;;;;;;4.10;2.23;;;;;;;18.93;41.91;100098.03;4251426;28;20241;-69
2022/05/31 08:11:09;;;;;;;5.43;2.60;;;;;;;19.08;42.76;100094.28;4261694;28;20287;-68
2022/05/31 08:13:37;;;;;;;4.53;2.33;;;;;;;18.75;44.14;100078.91;4258292;28;20243;-73
2022/05/31 08:16:04;;;;;;;3.30;2.17;;;;;;;18.66;43.49;100088.25;4264477;28;20792;-72
2022/05/31 08:18:35;;;;;;;4.83;1.90;;;;;;;18.36;43.75;100096.72;4267613;28;20231;-71
2022/05/31 08:21:04;;;;;;;4.27;2.43;;;;;;;18.13;44.09;100089.81;4289703;28;21099;-69
2022/05/31 08:23:32;;;;;;;6.77;2.63;;;;;;;18.76;41.31;100089.53;4262644;28;20619;-71
2022/05/31 08:26:01;;;;;;;6.07;2.60;;;;;;;19.06;42.79;100093.66;4264635;28;20238;-71
2022/05/31 08:28:28;;;;;;;5.37;2.53;;;;;;;19.10;41.18;100086.81;4274423;28;21752;-72
2022/05/31 08:31:11;;;;;;;3.40;2.00;;;;;;;19.50;39.98;100097.53;4291970;28;20253;-74
2022/05/31 08:33:39;;;;;;;7.40;2.07;;;;;;;19.47;40.38;100103.34;4264130;28;20671;-72
2022/05/31 08:36:07;;;;;;;2.33;1.77;;;;;;;18.74;42.63;100098.84;4256268;28;26010;-71
2022/05/31 08:38:34;;;;;;;4.80;2.20;;;;;;;18.95;42.40;100100.53;4274086;28;20257;-70
2022/05/31 08:41:01;;;;;;;6.70;2.23;;;;;;;18.50;42.89;100098.41;4274302;28;20231;-71
2022/05/31 08:43:48;;;;;;;4.33;2.00;;;;;;;18.44;42.60;100093.00;4278268;28;20239;-70
2022/05/31 08:46:26;;;;;;;4.90;1.90;;;;;;;18.26;44.04;100097.13;4281305;28;20237;-71
2022/05/31 08:49:04;;;;;;;4.73;2.00;;;;;;;18.47;42.77;100104.22;4268294;28;20907;-71
2022/05/31 08:51:55;;;;;;;2.83;1.67;;;;;;;18.09;43.17;100102.03;4290229;28;20570;-72
2022/05/31 08:57:51;;;;;;;4.77;2.00;;;;;;;17.21;42.50;100099.09;4253269;28;21015;-69
2022/05/31 09:00:19;;;;;;;4.03;2.00;;;;;;;17.19;44.78;100097.63;4228564;28;20232;-68
2022/05/31 09:02:54;;;;;;;4.43;1.70;;;;;;;17.54;45.77;100098.47;4281702;28;20223;-68
2022/05/31 09:05:29;;;;;;;5.47;2.00;;;;;;;17.82;46.17;100100.28;4227850;28;22147;-68
2022/05/31 09:08:02;;;;;;;3.83;2.10;;;;;;;18.28;42.60;100103.09;4252413;28;21341;-70
2022/05/31 09:10:36;;;;;;;5.33;2.13;;;;;;;18.39;44.62;100112.47;4243831;28;20226;-71
2022/05/31 09:13:43;;;;;;;4.00;2.40;;;;;;;18.14;43.23;100107.66;4269909;28;20230;-71
2022/05/31 09:16:17;;;;;;;4.17;2.70;;;;;;;17.93;45.43;100105.06;4256666;28;20234;-71
2022/05/31 09:18:59;;;;;;;3.17;2.00;;;;;;;17.82;44.87;100105.66;4225624;28;20239;-68
2022/05/31 09:21:38;;;;;;;3.80;1.97;;;;;;;18.01;43.98;100104.09;4224208;28;20256;-74
2022/05/31 09:24:09;;;;;;;2.80;1.80;;;;;;;17.93;43.90;100099.69;4260996;28;22284;-71
2022/05/31 09:26:35;;;;;;;5.37;1.80;;;;;;;17.81;43.13;100104.81;4259299;28;20238;-73
2022/05/31 09:29:17;;;;;;;4.07;1.47;;;;;;;18.07;41.86;100097.88;4251997;28;21856;-73
2022/05/31 09:32:04;;;;;;;6.63;2.33;;;;;;;18.38;41.81;100109.97;4259114;28;20227;-75
2022/05/31 09:34:50;;;;;;;3.90;2.13;;;;;;;18.69;41.19;100102.16;4223446;28;20273;-73
2022/05/31 09:37:34;;;;;;;3.80;1.70;;;;;;;18.31;42.31;100104.59;4246663;28;21782;-72
2022/05/31 09:40:23;;;;;;;4.07;2.00;;;;;;;18.23;42.57;100104.75;4225152;28;20237;-71
2022/05/31 09:43:09;;;;;;;5.60;1.80;;;;;;;18.43;43.19;100108.34;4246119;28;20254;-71
2022/05/31 09:45:54;;;;;;;3.90;2.00;;;;;;;18.37;42.82;100114.53;4250467;28;23546;-72
2022/05/31 09:48:21;;;;;;;2.43;2.00;;;;;;;18.37;42.18;100119.91;4253447;28;22193;-72
2022/05/31 09:50:48;;;;;;;3.97;2.10;;;;;;;18.33;41.54;100110.56;4274671;28;21454;-72
2022/05/31 09:59:21;;;;;;;6.33;1.93;;;;;;;18.89;40.16;100121.03;4258819;28;20223;-70
2022/05/31 10:01:48;;;;;;;7.80;2.20;;;;;;;19.01;39.60;100120.44;4237565;28;20704;-72
2022/05/31 10:04:24;;;;;;;2.53;1.90;;;;;;;19.14;39.43;100121.25;4264628;28;20643;-74
2022/05/31 10:07:04;;;;;;;3.80;1.67;;;;;;;19.00;41.80;100110.69;4250392;28;20593;-71
2022/05/31 10:09:36;;;;;;;4.13;1.60;;;;;;;18.90;41.79;100109.25;4243066;28;22465;-70
2022/05/31 10:12:10;;;;;;;6.77;2.33;;;;;;;18.82;42.62;100112.13;4242908;28;21432;-71
2022/05/31 10:14:40;;;;;;;2.13;1.50;;;;;;;18.94;41.34;100117.72;4278214;28;22104;-71
2022/05/31 10:17:16;;;;;;;5.40;1.60;;;;;;;18.92;40.91;100109.88;4239693;28;20350;-71
2022/05/31 10:19:43;;;;;;;3.03;1.80;;;;;;;19.18;39.47;100106.31;4249904;28;20249;-72
2022/05/31 10:22:16;;;;;;;4.77;1.70;;;;;;;19.29;39.71;100112.94;4232555;28;20238;-70
2022/05/31 10:24:42;;;;;;;2.73;1.90;;;;;;;19.28;39.54;100111.28;4241345;28;21514;-70
2022/05/31 10:27:18;;;;;;;3.33;1.40;;;;;;;18.94;43.05;100105.09;4266462;28;22797;-73
2022/05/31 10:29:56;;;;;;;2.23;1.40;;;;;;;19.33;42.33;100103.38;4251428;28;21277;-71
2022/05/31 10:32:51;;;;;;;2.77;1.83;;;;;;;19.46;43.30;100107.09;4251086;28;20417;-72
2022/05/31 10:35:22;;;;;;;3.17;1.57;;;;;;;19.53;40.63;100103.34;4244253;28;20231;-74
2022/05/31 10:37:57;;;;;;;5.30;1.60;;;;;;;19.42;39.32;100111.25;4247868;28;20488;-74
2022/05/31 10:40:46;;;;;;;5.27;1.43;;;;;;;19.37;40.89;100101.09;4249841;28;20246;-72
2022/05/31 10:43:41;;;;;;;6.37;1.70;;;;;;;19.22;40.63;100095.91;4232832;28;20306;-75
2022/05/31 10:46:28;;;;;;;3.57;1.70;;;;;;;19.23;40.22;100111.09;4257592;28;20427;-73
2022/05/31 10:48:56;;;;;;;4.30;1.90;;;;;;;18.89;41.38;100107.56;4283062;28;20233;-62
2022/05/31 10:51:33;;;;;;;2.70;1.87;;;;;;;18.96;40.61;100111.13;4256825;28;20278;-75
2022/05/31 10:54:33;;;;;;;2.70;1.30;;;;;;;19.37;38.32;100114.59;4264938;28;23777;-71
2022/05/31 10:57:29;;;;;;;3.57;1.80;;;;;;;19.15;39.97;100100.50;4263496;28;20234;-74
2022/05/31 11:00:21;;;;;;;2.97;1.30;;;;;;;18.85;40.06;100100.94;4237255;28;26034;-78
2022/05/31 11:03:21;;;;;;;3.17;1.30;;;;;;;18.73;40.27;100102.53;4282065;28;20238;-76
2022/05/31 11:05:54;;;;;;;8.73;4.30;;;;;;;19.10;41.17;100109.22;4276469;28;20235;-75
2022/05/31 11:11:39;;;;;;;2.63;1.30;;;;;;;18.74;39.78;100115.00;4269478;28;20488;-75
2022/05/31 11:14:23;;;;;;;2.23;1.27;;;;;;;18.84;39.03;100111.94;4265862;28;20289;-76
2022/05/31 11:17:15;;;;;;;3.83;1.60;;;;;;;19.07;38.80;100106.94;4253559;28;20239;-74
2022/05/31 11:20:11;;;;;;;2.17;1.40;;;;;;;19.02;40.28;100104.03;4312452;28;20393;-74
2022/05/31 11:23:09;;;;;;;3.87;2.07;;;;;;;18.83;40.90;100097.63;4286726;28;20226;-75
2022/05/31 11:26:05;;;;;;;2.40;1.40;;;;;;;19.07;39.34;100092.63;4294673;28;22364;-75
2022/05/31 11:29:16;;;;;;;2.17;1.57;;;;;;;19.16;39.73;100092.19;4280893;28;20690;-76
2022/05/31 11:32:12;;;;;;;6.90;1.67;;;;;;;19.36;37.10;100097.56;4315316;28;20495;-76
2022/05/31 11:34:58;;;;;;;4.47;1.50;;;;;;;19.74;35.41;100104.97;4323566;28;22752;-74
2022/05/31 11:37:56;;;;;;;4.03;1.40;;;;;;;19.80;37.74;100096.00;4273397;28;20240;-68
2022/05/31 11:40:34;;;;;;;12.23;1.40;;;;;;;19.65;36.61;100094.59;4265712;28;20297;-74
2022/05/31 11:43:29;;;;;;;3.27;1.17;;;;;;;20.00;36.10;100103.22;4289858;28;20342;-73
2022/05/31 11:46:10;;;;;;;4.83;1.30;;;;;;;19.73;35.62;100097.91;4248926;28;20335;-73
2022/05/31 11:48:50;;;;;;;1.73;1.00;;;;;;;19.80;36.41;100098.69;4263924;28;20235;-73
2022/05/31 11:51:41;;;;;;;6.50;1.10;;;;;;;19.93;35.72;100099.72;4283272;28;20757;-73
2022/05/31 11:54:34;;;;;;;3.73;1.10;;;;;;;19.92;35.29;100098.03;4289317;28;21168;-71
2022/05/31 11:57:22;;;;;;;2.33;1.20;;;;;;;19.77;35.27;100095.63;4230850;28;20238;-72
2022/05/31 12:00:06;;;;;;;2.20;1.13;;;;;;;19.85;35.20;100092.66;4237044;28;20219;-74
2022/05/31 12:02:39;;;;;;;2.13;1.10;;;;;;;19.96;35.08;100089.28;4275154;28;20395;-71
2022/05/31 12:05:20;;;;;;;4.33;2.70;;;;;;;20.22;35.47;100088.31;4243984;28;20237;-72
2022/05/31 12:07:56;;;;;;;3.83;1.10;;;;;;;20.17;33.08;100090.84;4241345;28;25190;-71
2022/05/31 12:10:26;;;;;;;2.63;1.20;;;;;;;19.97;33.31;100095.50;4253652;28;20280;-73
2022/05/31 12:12:55;;;;;;;2.33;1.20;;;;;;;19.43;35.63;100094.00;4236380;28;20345;-72